createdAt,value
2023-02-25T00:01:44.484Z,100670.47
2023-02-25T00:04:15.944Z,100678.69
2023-02-25T00:06:43.125Z,100679.88
2023-02-25T00:09:11.256Z,100683.34
2023-02-25T00:11:38.489Z,100677.72
2023-02-25T00:14:05.632Z,100676.09
2023-02-25T00:16:32.907Z,100668.22
2023-02-25T00:18:59.973Z,100687.34
2023-02-25T00:21:29.548Z,100676.16
2023-02-25T00:24:04.413Z,100683.09
2023-02-25T00:26:41.214Z,100687.28
2023-02-25T00:29:08.394Z,100689.84
2023-02-25T00:31:35.633Z,100683.50
2023-02-25T00:34:02.806Z,100687.22
2023-02-25T00:36:29.846Z,100686.22
2023-02-25T00:38:57.987Z,100684.34
2023-02-25T00:41:30.783Z,100694.63
2023-02-25T00:44:00.512Z,100703.06
2023-02-25T00:46:31.858Z,100714.94
2023-02-25T00:48:59.539Z,100717.13
2023-02-25T00:51:30.260Z,100714.91
2023-02-25T00:53:57.995Z,100713.56
2023-02-25T00:56:26.675Z,100707.19
2023-02-25T00:58:54.201Z,100709.59
2023-02-25T01:01:27.740Z,100705.94
2023-02-25T01:03:57.497Z,100698.28
2023-02-25T01:06:27.694Z,100699.03
2023-02-25T01:08:55.327Z,100703.47
2023-02-25T01:11:27.812Z,100715.88
2023-02-25T01:14:06.927Z,100710.81
2023-02-25T01:16:35.539Z,100719.38
2023-02-25T01:19:06.298Z,100716.06
2023-02-25T01:21:36.097Z,100720.44
2023-02-25T01:24:06.535Z,100713.84
2023-02-25T01:26:37.009Z,100715.38
2023-02-25T01:29:13.262Z,100707.06
2023-02-25T01:31:41.223Z,100715.66
2023-02-25T01:34:13.340Z,100712.19
2023-02-25T01:36:40.824Z,100705.09
2023-02-25T01:39:09.883Z,100717.94
2023-02-25T01:41:38.088Z,100717.19
2023-02-25T01:44:10.898Z,100716.13
2023-02-25T01:46:39.721Z,100716.56
2023-02-25T01:49:31.071Z,100709.00
2023-02-25T01:52:05.660Z,100714.00
2023-02-25T01:54:35.293Z,100702.00
2023-02-25T01:57:06.055Z,100707.22
2023-02-25T01:59:35.978Z,100712.28
2023-02-25T02:02:03.423Z,100707.97
2023-02-25T02:04:31.580Z,100713.56
2023-02-25T02:06:59.964Z,100715.34
2023-02-25T02:09:29.183Z,100710.97
2023-02-25T02:11:58.021Z,100706.59
2023-02-25T02:14:34.279Z,100705.47
2023-02-25T02:17:22.614Z,100705.63
2023-02-25T02:19:52.205Z,100698.16
2023-02-25T02:22:38.206Z,100689.59
2023-02-25T02:25:46.733Z,100688.56
2023-02-25T02:28:25.685Z,100698.22
2023-02-25T02:31:17.531Z,100700.41
2023-02-25T02:34:08.195Z,100710.38
2023-02-25T02:36:53.744Z,100706.75
2023-02-25T02:39:32.893Z,100704.78
2023-02-25T02:42:02.548Z,100710.00
2023-02-25T02:44:37.839Z,100702.91
2023-02-25T02:47:24.712Z,100694.06
2023-02-25T02:49:57.738Z,100704.44
2023-02-25T02:52:30.387Z,100684.56
2023-02-25T02:55:13.129Z,100697.63
2023-02-25T02:57:42.102Z,100702.09
2023-02-25T03:00:13.909Z,100708.25
2023-02-25T03:02:42.644Z,100696.03
2023-02-25T03:05:17.134Z,100702.91
2023-02-25T03:07:50.664Z,100709.09
2023-02-25T03:10:21.360Z,100699.75
2023-02-25T03:12:49.057Z,100706.00
2023-02-25T03:15:16.170Z,100714.75
2023-02-25T03:17:49.836Z,100721.84
2023-02-25T03:20:21.566Z,100729.72
2023-02-25T03:22:51.250Z,100727.53
2023-02-25T03:25:29.365Z,100726.91
2023-02-25T03:28:02.360Z,100719.97
2023-02-25T03:30:34.001Z,100722.88
2023-02-25T03:33:11.302Z,100717.88
2023-02-25T03:35:40.358Z,100700.91
2023-02-25T03:38:14.318Z,100713.91
2023-02-25T03:40:43.117Z,100715.06
2023-02-25T03:43:18.057Z,100716.63
2023-02-25T03:45:45.465Z,100728.69
2023-02-25T03:48:16.949Z,100730.28
2023-02-25T03:51:07.006Z,100735.56
2023-02-25T03:53:35.700Z,100739.19
2023-02-25T03:56:06.094Z,100737.47
2023-02-25T03:58:34.744Z,100732.25
2023-02-25T04:01:06.237Z,100739.94
2023-02-25T04:03:33.475Z,100744.78
2023-02-25T04:06:00.630Z,100749.56
2023-02-25T04:08:28.126Z,100742.34
2023-02-25T04:10:55.264Z,100751.59
2023-02-25T04:13:22.515Z,100745.44
2023-02-25T04:15:49.766Z,100759.69
2023-02-25T04:18:17.396Z,100764.75
2023-02-25T04:20:44.567Z,100758.69
2023-02-25T04:23:16.662Z,100763.91
2023-02-25T04:25:43.827Z,100750.94
2023-02-25T04:28:11.434Z,100758.25
2023-02-25T04:30:38.700Z,100757.06
2023-02-25T04:33:05.934Z,100748.28
2023-02-25T04:35:32.985Z,100760.69
2023-02-25T04:38:00.044Z,100759.91
2023-02-25T04:40:28.013Z,100759.22
2023-02-25T04:42:55.065Z,100768.72
2023-02-25T04:45:27.128Z,100768.50
2023-02-25T04:47:58.211Z,100776.38
2023-02-25T04:50:25.942Z,100771.06
2023-02-25T04:52:52.970Z,100769.97
2023-02-25T04:55:20.826Z,100777.66
2023-02-25T04:57:47.918Z,100770.78
2023-02-25T05:00:24.346Z,100769.69
2023-02-25T05:02:51.498Z,100770.66
2023-02-25T05:05:19.545Z,100756.16
2023-02-25T05:07:46.645Z,100761.28
2023-02-25T05:10:14.985Z,100757.97
2023-02-25T05:12:42.608Z,100755.44
2023-02-25T05:15:10.674Z,100758.94
2023-02-25T05:17:37.784Z,100760.47
2023-02-25T05:20:11.942Z,100763.25
2023-02-25T05:22:39.866Z,100767.56
2023-02-25T05:25:08.433Z,100785.22
2023-02-25T05:27:35.613Z,100779.38
2023-02-25T05:30:02.988Z,100784.38
2023-02-25T05:32:32.033Z,100781.88
2023-02-25T05:34:59.199Z,100777.81
2023-02-25T05:37:27.434Z,100776.34
2023-02-25T05:39:54.554Z,100781.47
2023-02-25T05:42:21.631Z,100783.97
2023-02-25T05:44:48.641Z,100789.97
2023-02-25T05:47:16.396Z,100784.84
2023-02-25T05:49:43.669Z,100776.00
2023-02-25T05:52:12.884Z,100774.69
2023-02-25T05:54:40.249Z,100780.44
2023-02-25T05:57:07.342Z,100777.28
2023-02-25T05:59:36.544Z,100777.03
2023-02-25T06:02:04.120Z,100769.19
2023-02-25T06:04:31.332Z,100788.22
2023-02-25T06:06:58.381Z,100797.56
2023-02-25T06:09:27.378Z,100790.50
2023-02-25T06:11:54.452Z,100793.59
2023-02-25T06:14:21.562Z,100795.03
2023-02-25T06:16:48.946Z,100796.59
2023-02-25T06:19:17.233Z,100791.47
2023-02-25T06:21:44.374Z,100798.28
2023-02-25T06:24:11.604Z,100806.69
2023-02-25T06:26:41.837Z,100813.63
2023-02-25T06:29:09.942Z,100823.19
2023-02-25T06:31:37.506Z,100820.78
2023-02-25T06:34:05.416Z,100825.75
2023-02-25T06:36:32.866Z,100821.44
2023-02-25T06:38:59.935Z,100825.63
2023-02-25T06:41:27.993Z,100819.63
2023-02-25T06:43:55.111Z,100822.97
2023-02-25T06:46:24.824Z,100830.88
2023-02-25T06:48:56.316Z,100829.41
2023-02-25T06:51:23.492Z,100835.63
2023-02-25T06:53:53.371Z,100831.97
2023-02-25T06:56:21.933Z,100829.53
2023-02-25T06:58:51.022Z,100840.06
2023-02-25T07:01:18.802Z,100862.88
2023-02-25T07:03:45.802Z,100879.72
2023-02-25T07:06:15.780Z,100885.69
2023-02-25T07:08:43.038Z,100874.09
2023-02-25T07:11:15.526Z,100877.22
2023-02-25T07:13:43.885Z,100858.13
2023-02-25T07:16:13.113Z,100858.06
2023-02-25T07:18:41.622Z,100863.25
2023-02-25T07:21:09.541Z,100872.53
2023-02-25T07:23:36.727Z,100864.56
2023-02-25T07:26:08.433Z,100878.44
2023-02-25T07:28:36.332Z,100877.66
2023-02-25T07:31:10.157Z,100873.31
2023-02-25T07:33:37.257Z,100884.16
2023-02-25T07:36:05.205Z,100876.09
2023-02-25T07:38:32.278Z,100869.44
2023-02-25T07:41:08.199Z,100883.50
2023-02-25T07:43:35.549Z,100889.03
2023-02-25T07:46:03.594Z,100895.28
2023-02-25T07:48:30.695Z,100896.31
2023-02-25T07:51:11.833Z,100899.78
2023-02-25T07:53:39.666Z,100894.78
2023-02-25T07:56:08.394Z,100905.28
2023-02-25T07:58:35.863Z,100900.00
2023-02-25T08:01:18.256Z,100909.75
2023-02-25T08:03:48.411Z,100906.53
2023-02-25T08:06:15.518Z,100918.16
2023-02-25T08:08:43.905Z,100908.38
2023-02-25T08:11:13.187Z,100914.56
2023-02-25T08:13:41.572Z,100910.63
2023-02-25T08:16:11.516Z,100921.97
2023-02-25T08:18:39.093Z,100925.53
2023-02-25T08:21:06.174Z,100925.91
2023-02-25T08:23:33.305Z,100934.91
2023-02-25T08:26:00.948Z,100925.66
2023-02-25T08:28:33.421Z,100939.75
2023-02-25T08:31:01.587Z,100932.19
2023-02-25T08:33:29.952Z,100949.06
2023-02-25T08:36:16.491Z,100940.78
2023-02-25T08:38:44.571Z,100943.44
2023-02-25T08:41:12.104Z,100947.19
2023-02-25T08:43:40.814Z,100945.47
2023-02-25T08:46:08.860Z,100945.91
2023-02-25T08:48:36.821Z,100951.03
2023-02-25T08:51:08.440Z,100946.09
2023-02-25T08:53:38.662Z,100950.53
2023-02-25T08:56:11.960Z,100970.72
2023-02-25T08:58:40.239Z,100967.50
2023-02-25T09:01:16.681Z,100979.50
2023-02-25T09:03:52.718Z,100984.69
2023-02-25T09:06:28.096Z,100984.56
2023-02-25T09:08:57.857Z,100991.97
2023-02-25T09:11:26.909Z,101014.63
2023-02-25T09:13:54.435Z,101014.94
2023-02-25T09:16:21.906Z,101010.94
2023-02-25T09:18:51.279Z,101007.19
2023-02-25T09:21:18.897Z,101013.38
2023-02-25T09:23:46.843Z,101017.97
2023-02-25T09:26:14.897Z,101015.41
2023-02-25T09:28:42.037Z,101023.91
2023-02-25T09:31:09.187Z,101031.94
2023-02-25T09:33:37.383Z,101044.44
2023-02-25T09:36:08.526Z,101043.88
2023-02-25T09:38:36.975Z,101039.50
2023-02-25T09:41:15.892Z,101041.88
2023-02-25T09:43:43.270Z,101046.19
2023-02-25T09:46:16.598Z,101040.97
2023-02-25T09:48:54.252Z,101038.75
2023-02-25T09:51:32.227Z,101037.19
2023-02-25T09:54:17.856Z,101049.38
2023-02-25T09:56:45.146Z,101052.25
2023-02-25T09:59:17.091Z,101057.53
2023-02-25T10:02:20.776Z,101061.16
2023-02-25T10:05:07.338Z,101064.94
2023-02-25T10:07:40.419Z,101060.69
2023-02-25T10:10:21.266Z,101061.00
2023-02-25T10:13:05.201Z,101070.06
2023-02-25T10:15:52.865Z,101077.31
2023-02-25T10:18:41.859Z,101082.03
2023-02-25T10:21:36.880Z,101084.78
2023-02-25T10:24:19.558Z,101092.81
2023-02-25T10:26:52.919Z,101094.47
2023-02-25T10:29:30.057Z,101103.69
2023-02-25T10:32:16.219Z,101102.50
2023-02-25T10:34:43.410Z,101105.53
2023-02-25T10:37:19.280Z,101101.78
2023-02-25T10:39:50.702Z,101104.41
2023-02-25T10:42:17.744Z,101110.41
2023-02-25T10:44:45.510Z,101111.84
2023-02-25T10:47:38.095Z,101102.03
2023-02-25T10:50:42.817Z,101108.22
2023-02-25T10:53:16.929Z,101108.84
2023-02-25T10:55:43.960Z,101118.22
2023-02-25T10:58:25.198Z,101124.03
2023-02-25T11:01:07.005Z,101125.75
2023-02-25T11:03:43.941Z,101121.97
2023-02-25T11:06:18.310Z,101149.91
2023-02-25T11:08:46.233Z,101151.75
2023-02-25T11:11:34.634Z,101172.75
2023-02-25T11:14:06.214Z,101171.47
2023-02-25T11:16:36.660Z,101173.13
2023-02-25T11:19:18.102Z,101164.78
2023-02-25T11:21:46.600Z,101159.72
2023-02-25T11:24:18.609Z,101159.19
2023-02-25T11:26:51.943Z,101159.88
2023-02-25T11:29:34.893Z,101160.41
2023-02-25T11:32:22.540Z,101156.03
2023-02-25T11:34:56.252Z,101165.56
2023-02-25T11:40:32.119Z,101172.09
2023-02-25T11:46:02.735Z,101176.53
2023-02-25T11:48:34.815Z,101182.19
2023-02-25T11:51:23.222Z,101162.81
2023-02-25T11:54:08.596Z,101179.19
2023-02-25T11:56:39.750Z,101180.25
2023-02-25T11:59:25.145Z,101179.03
2023-02-25T12:02:29.169Z,101187.31
2023-02-25T12:05:08.171Z,101168.78
2023-02-25T12:08:14.188Z,101179.22
2023-02-25T12:11:02.899Z,101184.81
2023-02-25T12:13:50.503Z,101182.28
2023-02-25T12:16:45.526Z,101187.59
2023-02-25T12:19:57.681Z,101189.38
2023-02-25T12:23:01.005Z,101185.72
2023-02-25T12:25:58.749Z,101184.19
2023-02-25T12:29:04.509Z,101185.03
2023-02-25T12:31:53.929Z,101182.97
2023-02-25T12:34:55.492Z,101182.75
2023-02-25T12:37:47.786Z,101190.91
2023-02-25T12:40:27.686Z,101185.50
2023-02-25T12:43:27.797Z,101200.03
2023-02-25T12:46:03.844Z,101199.41
2023-02-25T12:48:55.085Z,101201.47
2023-02-25T12:51:32.152Z,101201.59
2023-02-25T12:54:34.632Z,101206.09
2023-02-25T12:57:26.383Z,101198.81
2023-02-25T13:00:14.896Z,101207.31
2023-02-25T13:02:41.927Z,101217.09
2023-02-25T13:05:42.717Z,101222.81
2023-02-25T13:08:36.956Z,101221.47
2023-02-25T13:11:23.372Z,101238.03
2023-02-25T13:14:18.674Z,101236.28
2023-02-25T13:17:22.091Z,101237.78
2023-02-25T13:19:57.725Z,101238.28
2023-02-25T13:22:56.459Z,101234.75
2023-02-25T13:25:51.541Z,101238.66
2023-02-25T13:28:55.277Z,101227.22
2023-02-25T13:31:53.391Z,101239.50
2023-02-25T13:34:27.606Z,101236.06
2023-02-25T13:37:37.978Z,101234.41
2023-02-25T13:40:12.715Z,101242.72
2023-02-25T13:43:09.111Z,101243.31
2023-02-25T13:45:52.035Z,101259.59
2023-02-25T13:48:56.554Z,101266.81
2023-02-25T13:51:38.469Z,101245.53
2023-02-25T13:54:17.397Z,101272.38
2023-02-25T13:56:57.522Z,101264.06
2023-02-25T13:59:33.539Z,101261.84
2023-02-25T14:02:16.681Z,101268.47
2023-02-25T14:05:03.633Z,101266.44
2023-02-25T14:08:00.776Z,101264.03
2023-02-25T14:10:43.430Z,101270.50
2023-02-25T14:13:20.922Z,101265.13
2023-02-25T14:16:12.290Z,101267.41
2023-02-25T14:18:57.744Z,101271.03
2023-02-25T14:21:30.945Z,101284.84
2023-02-25T14:24:23.173Z,101289.53
2023-02-25T14:27:27.765Z,101293.16
2023-02-25T14:30:13.200Z,101304.06
2023-02-25T14:32:54.920Z,101307.00
2023-02-25T14:35:45.216Z,101315.31
2023-02-25T14:38:24.907Z,101316.84
2023-02-25T14:41:27.988Z,101320.16
2023-02-25T14:44:01.477Z,101326.19
2023-02-25T14:46:32.680Z,101331.66
2023-02-25T14:49:25.239Z,101320.47
2023-02-25T14:52:24.058Z,101333.66
2023-02-25T14:55:29.397Z,101340.66
2023-02-25T14:58:14.957Z,101351.81
2023-02-25T15:01:12.827Z,101360.81
2023-02-25T15:03:57.816Z,101358.31
2023-02-25T15:06:53.415Z,101363.25
2023-02-25T15:09:44.216Z,101362.09
2023-02-25T15:12:33.644Z,101359.84
2023-02-25T15:15:22.173Z,101343.88
2023-02-25T15:17:56.690Z,101355.63
2023-02-25T15:20:40.676Z,101358.44
2023-02-25T15:23:13.025Z,101364.50
2023-02-25T15:25:44.933Z,101368.59
2023-02-25T15:28:30.006Z,101375.84
2023-02-25T15:31:00.382Z,101376.41
2023-02-25T15:33:34.784Z,101381.34
2023-02-25T15:36:20.217Z,101384.03
2023-02-25T15:38:50.164Z,101379.53
2023-02-25T15:41:29.344Z,101394.56
2023-02-25T15:44:01.110Z,101397.34
2023-02-25T15:46:49.138Z,101406.72
2023-02-25T15:49:35.266Z,101404.84
2023-02-25T15:52:04.808Z,101409.50
2023-02-25T15:54:31.904Z,101415.50
2023-02-25T15:57:04.836Z,101413.84
2023-02-25T15:59:55.535Z,101419.00
2023-02-25T16:02:29.273Z,101423.66
2023-02-25T16:05:00.288Z,101430.34
2023-02-25T16:07:37.773Z,101429.97
2023-02-25T16:10:16.725Z,101429.75
2023-02-25T16:12:47.165Z,101434.47
2023-02-25T16:15:32.826Z,101438.81
2023-02-25T16:18:12.719Z,101442.16
2023-02-25T16:20:47.430Z,101438.72
2023-02-25T16:23:15.867Z,101438.78
2023-02-25T16:26:18.280Z,101447.56
2023-02-25T16:29:03.645Z,101453.31
2023-02-25T16:31:34.354Z,101461.47
2023-02-25T16:34:27.586Z,101462.06
2023-02-25T16:37:09.451Z,101474.66
2023-02-25T16:39:37.633Z,101469.97
2023-02-25T16:42:10.757Z,101488.22
2023-02-25T16:44:39.868Z,101496.59
2023-02-25T16:47:23.436Z,101498.63
2023-02-25T16:49:52.101Z,101496.22
2023-02-25T16:52:47.779Z,101502.84
2023-02-25T16:55:22.925Z,101506.69
2023-02-25T16:58:20.227Z,101504.97
2023-02-25T17:01:02.329Z,101517.09
2023-02-25T17:03:33.147Z,101518.44
2023-02-25T17:06:18.105Z,101511.94
2023-02-25T17:08:47.588Z,101512.47
2023-02-25T17:11:30.678Z,101507.25
2023-02-25T17:14:01.736Z,101515.84
2023-02-25T17:16:38.070Z,101518.75
2023-02-25T17:19:08.591Z,101526.19
2023-02-25T17:21:39.109Z,101530.78
2023-02-25T17:24:13.400Z,101522.63
2023-02-25T17:26:42.977Z,101534.56
2023-02-25T17:29:12.706Z,101543.81
2023-02-25T17:31:47.818Z,101546.91
2023-02-25T17:34:33.956Z,101548.31
2023-02-25T17:37:05.218Z,101550.59
2023-02-25T17:39:33.375Z,101551.94
2023-02-25T17:42:00.442Z,101544.69
2023-02-25T17:44:36.296Z,101550.19
2023-02-25T17:47:05.050Z,101552.38
2023-02-25T17:49:34.133Z,101544.72
2023-02-25T17:52:08.066Z,101553.00
2023-02-25T17:54:38.167Z,101553.59
2023-02-25T17:57:14.586Z,101549.09
2023-02-25T17:59:48.559Z,101550.50
2023-02-25T18:02:46.349Z,101553.06
2023-02-25T18:05:13.362Z,101551.00
2023-02-25T18:07:42.658Z,101555.81
2023-02-25T18:10:32.589Z,101566.13
2023-02-25T18:13:02.099Z,101555.88
2023-02-25T18:15:33.165Z,101578.63
2023-02-25T18:18:09.992Z,101570.78
2023-02-25T18:20:37.014Z,101576.41
2023-02-25T18:23:25.011Z,101576.19
2023-02-25T18:26:12.992Z,101577.50
2023-02-25T18:28:40.420Z,101570.03
2023-02-25T18:31:08.291Z,101578.41
2023-02-25T18:33:35.494Z,101590.09
2023-02-25T18:36:06.546Z,101588.03
2023-02-25T18:38:37.454Z,101594.53
2023-02-25T18:41:08.401Z,101601.09
2023-02-25T18:43:39.994Z,101593.22
2023-02-25T18:46:07.405Z,101600.72
2023-02-25T18:48:35.413Z,101594.69
2023-02-25T18:51:05.644Z,101600.28
2023-02-25T18:53:33.637Z,101598.56
2023-02-25T18:56:00.815Z,101601.59
2023-02-25T18:58:28.049Z,101599.72
2023-02-25T19:00:58.272Z,101616.59
2023-02-25T19:03:31.748Z,101620.72
2023-02-25T19:05:59.792Z,101612.66
2023-02-25T19:08:27.730Z,101625.19
2023-02-25T19:10:55.290Z,101625.88
2023-02-25T19:13:34.793Z,101631.78
2023-02-25T19:16:02.385Z,101631.69
2023-02-25T19:18:29.504Z,101628.81
2023-02-25T19:20:57.632Z,101639.63
2023-02-25T19:23:25.245Z,101633.53
2023-02-25T19:26:00.160Z,101634.97
2023-02-25T19:28:27.829Z,101638.09
2023-02-25T19:30:56.537Z,101641.88
2023-02-25T19:33:24.103Z,101640.97
2023-02-25T19:35:51.144Z,101636.75
2023-02-25T19:38:19.408Z,101643.72
2023-02-25T19:40:47.598Z,101641.28
2023-02-25T19:43:16.128Z,101641.59
2023-02-25T19:45:43.540Z,101640.91
2023-02-25T19:48:11.153Z,101643.56
2023-02-25T19:50:40.831Z,101644.34
2023-02-25T19:53:08.194Z,101642.50
2023-02-25T19:55:35.341Z,101648.06
2023-02-25T19:58:02.380Z,101658.19
2023-02-25T20:00:29.514Z,101654.41
2023-02-25T20:02:57.799Z,101657.72
2023-02-25T20:05:25.701Z,101661.44
2023-02-25T20:07:53.541Z,101659.78
2023-02-25T20:10:22.166Z,101656.91
2023-02-25T20:12:49.381Z,101659.38
2023-02-25T20:15:17.062Z,101668.56
2023-02-25T20:17:45.526Z,101661.69
2023-02-25T20:20:14.272Z,101674.34
2023-02-25T20:22:41.873Z,101656.19
2023-02-25T20:25:10.398Z,101662.16
2023-02-25T20:27:39.716Z,101668.63
2023-02-25T20:30:08.270Z,101663.97
2023-02-25T20:32:35.431Z,101669.97
2023-02-25T20:35:03.095Z,101669.06
2023-02-25T20:37:38.935Z,101668.06
2023-02-25T20:40:08.292Z,101672.88
2023-02-25T20:42:35.533Z,101679.31
2023-02-25T20:45:03.080Z,101662.72
2023-02-25T20:47:37.224Z,101678.44
2023-02-25T20:50:06.449Z,101677.34
2023-02-25T20:52:33.657Z,101676.34
2023-02-25T20:55:00.985Z,101688.00
2023-02-25T20:57:28.115Z,101694.44
2023-02-25T20:59:55.795Z,101690.88
2023-02-25T21:02:24.060Z,101697.53
2023-02-25T21:04:51.915Z,101703.31
2023-02-25T21:07:19.059Z,101700.66
2023-02-25T21:09:46.400Z,101700.66
2023-02-25T21:12:13.633Z,101705.75
2023-02-25T21:14:40.720Z,101718.16
2023-02-25T21:17:09.535Z,101712.84
2023-02-25T21:19:38.504Z,101712.50
2023-02-25T21:22:07.228Z,101719.50
2023-02-25T21:24:34.571Z,101712.16
2023-02-25T21:27:01.871Z,101719.28
2023-02-25T21:29:29.449Z,101714.19
2023-02-25T21:31:57.946Z,101713.84
2023-02-25T21:34:25.498Z,101719.28
2023-02-25T21:36:56.765Z,101722.25
2023-02-25T21:39:25.228Z,101723.94
2023-02-25T21:41:52.347Z,101722.25
2023-02-25T21:44:19.508Z,101723.81
2023-02-25T21:46:46.678Z,101718.50
2023-02-25T21:49:13.882Z,101729.91
2023-02-25T21:51:40.971Z,101726.59
2023-02-25T21:54:09.696Z,101730.81
2023-02-25T21:56:36.804Z,101741.00
2023-02-25T21:59:05.489Z,101740.78
2023-02-25T22:01:35.336Z,101741.44
2023-02-25T22:04:02.967Z,101746.53
2023-02-25T22:06:30.748Z,101757.41
2023-02-25T22:08:58.022Z,101754.72
2023-02-25T22:11:29.086Z,101764.16
2023-02-25T22:13:58.795Z,101764.81
2023-02-25T22:16:28.042Z,101762.94
2023-02-25T22:18:56.659Z,101766.34
2023-02-25T22:21:26.636Z,101772.56
2023-02-25T22:23:56.587Z,101774.13
2023-02-25T22:26:27.919Z,101768.22
2023-02-25T22:29:00.566Z,101770.00
2023-02-25T22:31:28.802Z,101779.22
2023-02-25T22:33:57.690Z,101766.00
2023-02-25T22:36:25.737Z,101780.53
2023-02-25T22:38:54.441Z,101772.69
2023-02-25T22:41:28.012Z,101776.88
2023-02-25T22:43:57.671Z,101769.56
2023-02-25T22:46:28.176Z,101789.28
2023-02-25T22:48:56.645Z,101783.53
2023-02-25T22:51:25.375Z,101775.56
2023-02-25T22:53:54.018Z,101787.75
2023-02-25T22:56:21.926Z,101783.66
2023-02-25T22:58:49.703Z,101786.53
2023-02-25T23:01:19.386Z,101783.31
2023-02-25T23:03:47.966Z,101781.78
2023-02-25T23:06:17.713Z,101770.59
2023-02-25T23:08:45.127Z,101772.69
2023-02-25T23:11:19.219Z,101793.19
2023-02-25T23:13:48.270Z,101792.63
2023-02-25T23:16:17.726Z,101794.63
2023-02-25T23:18:45.705Z,101786.75
2023-02-25T23:21:18.906Z,101800.50
2023-02-25T23:23:48.508Z,101802.72
2023-02-25T23:26:18.563Z,101807.25
2023-02-25T23:28:46.352Z,101810.81
2023-02-25T23:31:28.742Z,101814.13
2023-02-25T23:34:01.359Z,101816.13
2023-02-25T23:36:29.235Z,101815.56
2023-02-25T23:38:59.242Z,101824.75
2023-02-25T23:41:28.205Z,101827.31
2023-02-25T23:43:58.129Z,101824.75
2023-02-25T23:46:28.065Z,101824.56
2023-02-25T23:49:01.676Z,101825.44
2023-02-25T23:51:29.637Z,101828.13
2023-02-25T23:53:59.614Z,101832.41
2023-02-25T23:56:29.626Z,101836.75
2023-02-25T23:58:57.950Z,101825.22
